sensor_id;sensor_type;location;lat;lon;timestamp;P1;durP1;ratioP1;P2;durP2;ratioP2
27833;SDS011;15200;50.570;7.244;2023-03-01T00:00:04;15.90;;;8.00;;
27833;SDS011;15200;50.570;7.244;2023-03-01T00:02:33;13.40;;;8.43;;
27833;SDS011;15200;50.570;7.244;2023-03-01T00:05:00;15.43;;;8.80;;
27833;SDS011;15200;50.570;7.244;2023-03-01T00:07:28;14.70;;;8.90;;
27833;SDS011;15200;50.570;7.244;2023-03-01T00:09:55;14.43;;;9.60;;
27833;SDS011;15200;50.570;7.244;2023-03-01T00:12:22;15.87;;;8.60;;
27833;SDS011;15200;50.570;7.244;2023-03-01T00:14:49;15.57;;;9.10;;
27833;SDS011;15200;50.570;7.244;2023-03-01T00:17:17;15.13;;;8.37;;
27833;SDS011;15200;50.570;7.244;2023-03-01T00:19:44;15.13;;;9.03;;
27833;SDS011;15200;50.570;7.244;2023-03-01T00:22:11;14.57;;;8.40;;
27833;SDS011;15200;50.570;7.244;2023-03-01T00:24:39;13.30;;;8.03;;
27833;SDS011;15200;50.570;7.244;2023-03-01T00:27:06;12.97;;;8.00;;
27833;SDS011;15200;50.570;7.244;2023-03-01T00:29:34;14.63;;;9.37;;
27833;SDS011;15200;50.570;7.244;2023-03-01T00:32:02;13.10;;;8.40;;
27833;SDS011;15200;50.570;7.244;2023-03-01T00:34:29;14.43;;;8.37;;
27833;SDS011;15200;50.570;7.244;2023-03-01T00:36:57;15.13;;;8.17;;
27833;SDS011;15200;50.570;7.244;2023-03-01T00:39:26;12.80;;;7.87;;
27833;SDS011;15200;50.570;7.244;2023-03-01T00:41:53;17.23;;;8.43;;
27833;SDS011;15200;50.570;7.244;2023-03-01T00:44:20;15.53;;;8.57;;
27833;SDS011;15200;50.570;7.244;2023-03-01T00:46:48;13.37;;;8.40;;
27833;SDS011;15200;50.570;7.244;2023-03-01T00:49:15;13.80;;;7.93;;
27833;SDS011;15200;50.570;7.244;2023-03-01T00:51:42;12.93;;;8.10;;
27833;SDS011;15200;50.570;7.244;2023-03-01T00:54:09;13.33;;;7.93;;
27833;SDS011;15200;50.570;7.244;2023-03-01T00:56:37;12.37;;;8.03;;
27833;SDS011;15200;50.570;7.244;2023-03-01T00:59:04;14.80;;;8.63;;
27833;SDS011;15200;50.570;7.244;2023-03-01T01:01:31;16.03;;;8.43;;
27833;SDS011;15200;50.570;7.244;2023-03-01T01:04:00;14.23;;;8.03;;
27833;SDS011;15200;50.570;7.244;2023-03-01T01:06:28;16.13;;;8.57;;
27833;SDS011;15200;50.570;7.244;2023-03-01T01:08:57;13.43;;;8.20;;
27833;SDS011;15200;50.570;7.244;2023-03-01T01:11:25;14.27;;;8.13;;
27833;SDS011;15200;50.570;7.244;2023-03-01T01:13:52;12.70;;;7.67;;
27833;SDS011;15200;50.570;7.244;2023-03-01T01:16:21;13.97;;;8.10;;
27833;SDS011;15200;50.570;7.244;2023-03-01T01:18:48;15.80;;;8.67;;
27833;SDS011;15200;50.570;7.244;2023-03-01T01:21:17;17.17;;;8.30;;
27833;SDS011;15200;50.570;7.244;2023-03-01T01:23:45;16.37;;;8.70;;
27833;SDS011;15200;50.570;7.244;2023-03-01T01:26:17;13.00;;;7.30;;
27833;SDS011;15200;50.570;7.244;2023-03-01T01:28:41;17.07;;;8.33;;
27833;SDS011;15200;50.570;7.244;2023-03-01T01:31:09;14.10;;;7.80;;
27833;SDS011;15200;50.570;7.244;2023-03-01T01:33:37;14.37;;;8.40;;
27833;SDS011;15200;50.570;7.244;2023-03-01T01:36:05;15.00;;;8.70;;
27833;SDS011;15200;50.570;7.244;2023-03-01T01:38:33;14.00;;;8.27;;
27833;SDS011;15200;50.570;7.244;2023-03-01T01:41:00;13.50;;;8.80;;
27833;SDS011;15200;50.570;7.244;2023-03-01T01:43:29;14.27;;;9.13;;
27833;SDS011;15200;50.570;7.244;2023-03-01T01:46:01;15.20;;;9.33;;
27833;SDS011;15200;50.570;7.244;2023-03-01T01:48:27;15.63;;;8.20;;
27833;SDS011;15200;50.570;7.244;2023-03-01T01:50:57;13.63;;;9.27;;
27833;SDS011;15200;50.570;7.244;2023-03-01T01:53:24;14.83;;;9.00;;
27833;SDS011;15200;50.570;7.244;2023-03-01T01:55:53;16.37;;;8.90;;
27833;SDS011;15200;50.570;7.244;2023-03-01T01:58:22;15.53;;;8.73;;
27833;SDS011;15200;50.570;7.244;2023-03-01T02:00:51;15.23;;;8.60;;
27833;SDS011;15200;50.570;7.244;2023-03-01T02:03:20;15.93;;;9.53;;
27833;SDS011;15200;50.570;7.244;2023-03-01T02:08:19;20.47;;;8.97;;
27833;SDS011;15200;50.570;7.244;2023-03-01T02:10:48;12.77;;;8.77;;
27833;SDS011;15200;50.570;7.244;2023-03-01T02:13:16;16.33;;;8.70;;
27833;SDS011;15200;50.570;7.244;2023-03-01T02:15:43;17.50;;;8.93;;
27833;SDS011;15200;50.570;7.244;2023-03-01T02:18:12;16.53;;;8.70;;
27833;SDS011;15200;50.570;7.244;2023-03-01T02:23:23;15.70;;;7.67;;
27833;SDS011;15200;50.570;7.244;2023-03-01T02:25:52;12.97;;;7.83;;
27833;SDS011;15200;50.570;7.244;2023-03-01T02:28:22;14.90;;;8.27;;
27833;SDS011;15200;50.570;7.244;2023-03-01T02:30:49;11.43;;;7.97;;
27833;SDS011;15200;50.570;7.244;2023-03-01T02:33:35;12.87;;;8.33;;
27833;SDS011;15200;50.570;7.244;2023-03-01T02:36:04;16.20;;;8.70;;
27833;SDS011;15200;50.570;7.244;2023-03-01T02:38:33;12.70;;;8.07;;
27833;SDS011;15200;50.570;7.244;2023-03-01T02:41:00;11.37;;;8.07;;
27833;SDS011;15200;50.570;7.244;2023-03-01T02:43:29;12.70;;;7.90;;
27833;SDS011;15200;50.570;7.244;2023-03-01T02:45:59;13.27;;;8.13;;
27833;SDS011;15200;50.570;7.244;2023-03-01T02:48:26;14.67;;;7.87;;
27833;SDS011;15200;50.570;7.244;2023-03-01T02:51:14;12.13;;;7.63;;
27833;SDS011;15200;50.570;7.244;2023-03-01T02:53:37;13.27;;;7.60;;
27833;SDS011;15200;50.570;7.244;2023-03-01T02:56:03;14.67;;;8.67;;
27833;SDS011;15200;50.570;7.244;2023-03-01T02:58:30;12.30;;;7.27;;
27833;SDS011;15200;50.570;7.244;2023-03-01T03:00:58;13.03;;;8.07;;
27833;SDS011;15200;50.570;7.244;2023-03-01T03:03:27;13.77;;;8.60;;
27833;SDS011;15200;50.570;7.244;2023-03-01T03:05:54;13.37;;;8.40;;
27833;SDS011;15200;50.570;7.244;2023-03-01T03:08:21;13.53;;;7.63;;
27833;SDS011;15200;50.570;7.244;2023-03-01T03:10:49;18.83;;;7.93;;
27833;SDS011;15200;50.570;7.244;2023-03-01T03:13:17;11.00;;;7.43;;
27833;SDS011;15200;50.570;7.244;2023-03-01T03:15:45;13.70;;;8.53;;
27833;SDS011;15200;50.570;7.244;2023-03-01T03:18:14;12.60;;;7.50;;
27833;SDS011;15200;50.570;7.244;2023-03-01T03:20:41;19.20;;;8.00;;
27833;SDS011;15200;50.570;7.244;2023-03-01T03:23:09;13.40;;;8.53;;
27833;SDS011;15200;50.570;7.244;2023-03-01T03:25:36;15.53;;;8.37;;
27833;SDS011;15200;50.570;7.244;2023-03-01T03:28:04;11.87;;;7.17;;
27833;SDS011;15200;50.570;7.244;2023-03-01T03:30:33;12.53;;;7.90;;
27833;SDS011;15200;50.570;7.244;2023-03-01T03:33:02;12.63;;;7.27;;
27833;SDS011;15200;50.570;7.244;2023-03-01T03:35:38;10.97;;;7.20;;
27833;SDS011;15200;50.570;7.244;2023-03-01T03:37:59;13.70;;;8.23;;
27833;SDS011;15200;50.570;7.244;2023-03-01T03:40:36;13.77;;;8.03;;
27833;SDS011;15200;50.570;7.244;2023-03-01T03:43:05;12.70;;;7.90;;
27833;SDS011;15200;50.570;7.244;2023-03-01T03:45:33;15.63;;;7.40;;
27833;SDS011;15200;50.570;7.244;2023-03-01T03:48:02;18.30;;;9.03;;
27833;SDS011;15200;50.570;7.244;2023-03-01T03:50:30;12.57;;;8.10;;
27833;SDS011;15200;50.570;7.244;2023-03-01T03:53:00;14.67;;;8.83;;
27833;SDS011;15200;50.570;7.244;2023-03-01T03:55:27;15.30;;;8.47;;
27833;SDS011;15200;50.570;7.244;2023-03-01T03:57:59;13.90;;;8.33;;
27833;SDS011;15200;50.570;7.244;2023-03-01T04:00:28;13.07;;;8.23;;
27833;SDS011;15200;50.570;7.244;2023-03-01T04:02:56;12.40;;;7.93;;
27833;SDS011;15200;50.570;7.244;2023-03-01T04:05:23;15.67;;;8.60;;
27833;SDS011;15200;50.570;7.244;2023-03-01T04:07:51;14.87;;;8.17;;
27833;SDS011;15200;50.570;7.244;2023-03-01T04:10:20;14.17;;;8.07;;
27833;SDS011;15200;50.570;7.244;2023-03-01T04:12:48;12.13;;;7.83;;
27833;SDS011;15200;50.570;7.244;2023-03-01T04:15:15;10.87;;;7.50;;
27833;SDS011;15200;50.570;7.244;2023-03-01T04:17:43;13.03;;;7.63;;
27833;SDS011;15200;50.570;7.244;2023-03-01T04:20:12;12.93;;;8.07;;
27833;SDS011;15200;50.570;7.244;2023-03-01T04:22:39;14.30;;;8.53;;
27833;SDS011;15200;50.570;7.244;2023-03-01T04:25:07;12.33;;;8.10;;
27833;SDS011;15200;50.570;7.244;2023-03-01T04:27:35;18.93;;;9.27;;
27833;SDS011;15200;50.570;7.244;2023-03-01T04:30:03;13.90;;;7.93;;
27833;SDS011;15200;50.570;7.244;2023-03-01T04:32:30;14.63;;;8.43;;
27833;SDS011;15200;50.570;7.244;2023-03-01T04:34:58;13.50;;;7.87;;
27833;SDS011;15200;50.570;7.244;2023-03-01T04:37:26;15.40;;;8.40;;
27833;SDS011;15200;50.570;7.244;2023-03-01T04:39:54;18.23;;;9.10;;
27833;SDS011;15200;50.570;7.244;2023-03-01T04:42:21;17.10;;;8.13;;
27833;SDS011;15200;50.570;7.244;2023-03-01T04:44:48;16.07;;;8.13;;
27833;SDS011;15200;50.570;7.244;2023-03-01T04:47:17;17.60;;;8.93;;
27833;SDS011;15200;50.570;7.244;2023-03-01T04:49:44;15.73;;;9.13;;
27833;SDS011;15200;50.570;7.244;2023-03-01T04:52:12;19.87;;;8.63;;
27833;SDS011;15200;50.570;7.244;2023-03-01T04:54:39;15.80;;;8.17;;
27833;SDS011;15200;50.570;7.244;2023-03-01T04:57:06;14.63;;;8.43;;
27833;SDS011;15200;50.570;7.244;2023-03-01T04:59:34;13.43;;;8.40;;
27833;SDS011;15200;50.570;7.244;2023-03-01T05:02:02;15.03;;;8.80;;
27833;SDS011;15200;50.570;7.244;2023-03-01T05:04:30;18.07;;;9.17;;
27833;SDS011;15200;50.570;7.244;2023-03-01T05:06:57;16.20;;;9.13;;
27833;SDS011;15200;50.570;7.244;2023-03-01T05:12:12;14.07;;;8.93;;
27833;SDS011;15200;50.570;7.244;2023-03-01T05:14:39;16.80;;;8.30;;
27833;SDS011;15200;50.570;7.244;2023-03-01T05:17:07;15.90;;;8.60;;
27833;SDS011;15200;50.570;7.244;2023-03-01T05:19:34;15.27;;;8.40;;
27833;SDS011;15200;50.570;7.244;2023-03-01T05:22:02;19.83;;;8.70;;
27833;SDS011;15200;50.570;7.244;2023-03-01T05:24:31;17.13;;;9.20;;
27833;SDS011;15200;50.570;7.244;2023-03-01T05:27:00;17.87;;;8.97;;
27833;SDS011;15200;50.570;7.244;2023-03-01T05:29:28;17.90;;;8.30;;
27833;SDS011;15200;50.570;7.244;2023-03-01T05:32:01;13.87;;;8.50;;
27833;SDS011;15200;50.570;7.244;2023-03-01T05:34:25;23.37;;;8.40;;
27833;SDS011;15200;50.570;7.244;2023-03-01T05:36:52;13.93;;;7.97;;
27833;SDS011;15200;50.570;7.244;2023-03-01T05:39:20;15.33;;;8.40;;
27833;SDS011;15200;50.570;7.244;2023-03-01T05:41:53;15.50;;;8.13;;
27833;SDS011;15200;50.570;7.244;2023-03-01T05:44:21;21.43;;;8.73;;
27833;SDS011;15200;50.570;7.244;2023-03-01T05:46:48;14.47;;;7.73;;
27833;SDS011;15200;50.570;7.244;2023-03-01T05:49:16;15.90;;;9.07;;
27833;SDS011;15200;50.570;7.244;2023-03-01T05:51:47;17.90;;;8.73;;
27833;SDS011;15200;50.570;7.244;2023-03-01T05:54:12;18.03;;;8.73;;
27833;SDS011;15200;50.570;7.244;2023-03-01T05:56:40;19.37;;;8.27;;
27833;SDS011;15200;50.570;7.244;2023-03-01T05:59:07;21.67;;;10.00;;
27833;SDS011;15200;50.570;7.244;2023-03-01T06:01:34;16.57;;;8.00;;
27833;SDS011;15200;50.570;7.244;2023-03-01T06:04:03;17.33;;;8.13;;
27833;SDS011;15200;50.570;7.244;2023-03-01T06:06:34;15.33;;;8.83;;
27833;SDS011;15200;50.570;7.244;2023-03-01T06:08:59;16.30;;;8.73;;
27833;SDS011;15200;50.570;7.244;2023-03-01T06:11:26;20.17;;;8.43;;
27833;SDS011;15200;50.570;7.244;2023-03-01T06:13:54;17.27;;;9.20;;
27833;SDS011;15200;50.570;7.244;2023-03-01T06:16:21;14.97;;;9.17;;
27833;SDS011;15200;50.570;7.244;2023-03-01T06:18:48;15.00;;;8.50;;
27833;SDS011;15200;50.570;7.244;2023-03-01T06:21:16;13.93;;;8.20;;
27833;SDS011;15200;50.570;7.244;2023-03-01T06:23:43;19.23;;;8.10;;
27833;SDS011;15200;50.570;7.244;2023-03-01T06:26:10;17.90;;;8.80;;
27833;SDS011;15200;50.570;7.244;2023-03-01T06:28:38;17.57;;;8.70;;
27833;SDS011;15200;50.570;7.244;2023-03-01T06:31:05;13.30;;;8.40;;
27833;SDS011;15200;50.570;7.244;2023-03-01T06:33:34;16.37;;;8.60;;
27833;SDS011;15200;50.570;7.244;2023-03-01T06:36:02;14.23;;;8.70;;
27833;SDS011;15200;50.570;7.244;2023-03-01T06:38:29;17.87;;;8.77;;
27833;SDS011;15200;50.570;7.244;2023-03-01T06:40:57;13.97;;;8.80;;
27833;SDS011;15200;50.570;7.244;2023-03-01T06:43:24;20.13;;;8.83;;
27833;SDS011;15200;50.570;7.244;2023-03-01T06:45:51;20.07;;;9.67;;
27833;SDS011;15200;50.570;7.244;2023-03-01T06:48:19;18.83;;;10.90;;
27833;SDS011;15200;50.570;7.244;2023-03-01T06:50:48;23.13;;;11.37;;
27833;SDS011;15200;50.570;7.244;2023-03-01T06:53:15;26.63;;;12.30;;
27833;SDS011;15200;50.570;7.244;2023-03-01T06:55:42;25.90;;;12.50;;
27833;SDS011;15200;50.570;7.244;2023-03-01T06:58:09;25.63;;;11.43;;
27833;SDS011;15200;50.570;7.244;2023-03-01T07:00:37;29.53;;;10.50;;
27833;SDS011;15200;50.570;7.244;2023-03-01T07:03:06;19.43;;;9.67;;
27833;SDS011;15200;50.570;7.244;2023-03-01T07:05:33;20.50;;;9.93;;
27833;SDS011;15200;50.570;7.244;2023-03-01T07:08:01;15.73;;;10.07;;
27833;SDS011;15200;50.570;7.244;2023-03-01T07:10:28;20.53;;;9.90;;
27833;SDS011;15200;50.570;7.244;2023-03-01T07:12:56;20.67;;;10.23;;
27833;SDS011;15200;50.570;7.244;2023-03-01T07:15:24;18.57;;;10.07;;
27833;SDS011;15200;50.570;7.244;2023-03-01T07:17:52;15.73;;;9.20;;
27833;SDS011;15200;50.570;7.244;2023-03-01T07:20:19;17.67;;;9.33;;
27833;SDS011;15200;50.570;7.244;2023-03-01T07:22:51;16.70;;;9.87;;
27833;SDS011;15200;50.570;7.244;2023-03-01T07:25:19;16.60;;;8.87;;
27833;SDS011;15200;50.570;7.244;2023-03-01T07:27:54;18.13;;;10.80;;
27833;SDS011;15200;50.570;7.244;2023-03-01T07:30:18;22.73;;;11.67;;
27833;SDS011;15200;50.570;7.244;2023-03-01T07:32:46;17.93;;;11.37;;
27833;SDS011;15200;50.570;7.244;2023-03-01T07:35:13;18.17;;;10.83;;
27833;SDS011;15200;50.570;7.244;2023-03-01T07:37:41;17.13;;;10.30;;
27833;SDS011;15200;50.570;7.244;2023-03-01T07:40:08;17.17;;;10.77;;
27833;SDS011;15200;50.570;7.244;2023-03-01T07:42:36;23.27;;;12.53;;
27833;SDS011;15200;50.570;7.244;2023-03-01T07:45:04;16.60;;;11.07;;
27833;SDS011;15200;50.570;7.244;2023-03-01T07:47:33;25.43;;;12.03;;
27833;SDS011;15200;50.570;7.244;2023-03-01T07:50:00;21.70;;;12.63;;
27833;SDS011;15200;50.570;7.244;2023-03-01T07:52:29;18.60;;;12.27;;
27833;SDS011;15200;50.570;7.244;2023-03-01T07:54:57;20.43;;;11.77;;
27833;SDS011;15200;50.570;7.244;2023-03-01T07:57:24;23.53;;;11.63;;
27833;SDS011;15200;50.570;7.244;2023-03-01T07:59:52;20.40;;;10.53;;
27833;SDS011;15200;50.570;7.244;2023-03-01T08:02:19;18.57;;;10.23;;
27833;SDS011;15200;50.570;7.244;2023-03-01T08:04:46;21.53;;;11.07;;
27833;SDS011;15200;50.570;7.244;2023-03-01T08:07:14;20.27;;;11.43;;
27833;SDS011;15200;50.570;7.244;2023-03-01T08:09:41;18.37;;;11.30;;
27833;SDS011;15200;50.570;7.244;2023-03-01T08:12:08;23.47;;;11.17;;
27833;SDS011;15200;50.570;7.244;2023-03-01T08:14:35;18.80;;;10.90;;
27833;SDS011;15200;50.570;7.244;2023-03-01T08:17:03;18.33;;;11.03;;
27833;SDS011;15200;50.570;7.244;2023-03-01T08:19:30;18.30;;;11.93;;
27833;SDS011;15200;50.570;7.244;2023-03-01T08:21:57;20.27;;;11.23;;
27833;SDS011;15200;50.570;7.244;2023-03-01T08:24:26;15.13;;;10.13;;
27833;SDS011;15200;50.570;7.244;2023-03-01T08:26:53;20.37;;;10.67;;
27833;SDS011;15200;50.570;7.244;2023-03-01T08:29:20;16.60;;;10.27;;
27833;SDS011;15200;50.570;7.244;2023-03-01T08:31:48;20.47;;;10.57;;
27833;SDS011;15200;50.570;7.244;2023-03-01T08:34:16;17.30;;;10.13;;
27833;SDS011;15200;50.570;7.244;2023-03-01T08:36:44;17.23;;;10.40;;
27833;SDS011;15200;50.570;7.244;2023-03-01T08:39:12;16.20;;;10.80;;
27833;SDS011;15200;50.570;7.244;2023-03-01T08:41:40;15.90;;;10.53;;
27833;SDS011;15200;50.570;7.244;2023-03-01T08:44:08;16.13;;;9.47;;
27833;SDS011;15200;50.570;7.244;2023-03-01T08:46:40;18.47;;;10.20;;
27833;SDS011;15200;50.570;7.244;2023-03-01T08:49:08;17.50;;;9.83;;
27833;SDS011;15200;50.570;7.244;2023-03-01T08:51:36;15.07;;;10.03;;
27833;SDS011;15200;50.570;7.244;2023-03-01T08:54:04;17.00;;;10.23;;
27833;SDS011;15200;50.570;7.244;2023-03-01T08:56:31;13.60;;;9.17;;
27833;SDS011;15200;50.570;7.244;2023-03-01T08:58:59;11.83;;;9.07;;
27833;SDS011;15200;50.570;7.244;2023-03-01T09:01:26;14.63;;;9.83;;
27833;SDS011;15200;50.570;7.244;2023-03-01T09:03:54;17.17;;;9.83;;
27833;SDS011;15200;50.570;7.244;2023-03-01T09:06:21;17.43;;;10.33;;
27833;SDS011;15200;50.570;7.244;2023-03-01T09:08:49;16.90;;;10.17;;
27833;SDS011;15200;50.570;7.244;2023-03-01T09:11:18;15.10;;;9.40;;
27833;SDS011;15200;50.570;7.244;2023-03-01T09:13:46;15.20;;;10.07;;
27833;SDS011;15200;50.570;7.244;2023-03-01T09:16:15;14.03;;;9.47;;
27833;SDS011;15200;50.570;7.244;2023-03-01T09:18:43;16.33;;;9.53;;
27833;SDS011;15200;50.570;7.244;2023-03-01T09:21:12;16.10;;;9.43;;
27833;SDS011;15200;50.570;7.244;2023-03-01T09:23:41;16.03;;;9.70;;
27833;SDS011;15200;50.570;7.244;2023-03-01T09:26:10;14.87;;;9.73;;
27833;SDS011;15200;50.570;7.244;2023-03-01T09:28:37;14.10;;;9.40;;
27833;SDS011;15200;50.570;7.244;2023-03-01T09:31:05;13.50;;;9.67;;
27833;SDS011;15200;50.570;7.244;2023-03-01T09:33:32;16.57;;;10.90;;
27833;SDS011;15200;50.570;7.244;2023-03-01T09:36:00;15.93;;;10.43;;
27833;SDS011;15200;50.570;7.244;2023-03-01T09:38:28;13.47;;;8.83;;
27833;SDS011;15200;50.570;7.244;2023-03-01T09:40:55;15.43;;;10.20;;
27833;SDS011;15200;50.570;7.244;2023-03-01T09:43:29;16.23;;;9.63;;
27833;SDS011;15200;50.570;7.244;2023-03-01T09:45:58;16.17;;;10.10;;
27833;SDS011;15200;50.570;7.244;2023-03-01T09:48:26;14.18;;;9.88;;
27833;SDS011;15200;50.570;7.244;2023-03-01T09:50:54;13.57;;;9.77;;
27833;SDS011;15200;50.570;7.244;2023-03-01T09:53:23;13.97;;;9.17;;
27833;SDS011;15200;50.570;7.244;2023-03-01T09:56:05;18.83;;;10.63;;
27833;SDS011;15200;50.570;7.244;2023-03-01T09:58:36;15.53;;;9.75;;
27833;SDS011;15200;50.570;7.244;2023-03-01T10:01:19;13.57;;;9.63;;
27833;SDS011;15200;50.570;7.244;2023-03-01T10:03:44;16.93;;;9.03;;
27833;SDS011;15200;50.570;7.244;2023-03-01T10:06:19;15.78;;;10.50;;
27833;SDS011;15200;50.570;7.244;2023-03-01T10:08:54;14.17;;;9.47;;
27833;SDS011;15200;50.570;7.244;2023-03-01T10:11:24;16.25;;;10.08;;
27833;SDS011;15200;50.570;7.244;2023-03-01T10:14:09;14.00;;;9.78;;
27833;SDS011;15200;50.570;7.244;2023-03-01T10:16:43;14.47;;;9.73;;
27833;SDS011;15200;50.570;7.244;2023-03-01T10:22:01;15.93;;;9.73;;
27833;SDS011;15200;50.570;7.244;2023-03-01T10:24:27;17.40;;;9.57;;
27833;SDS011;15200;50.570;7.244;2023-03-01T10:26:57;13.83;;;9.48;;
27833;SDS011;15200;50.570;7.244;2023-03-01T10:29:30;13.48;;;9.93;;
27833;SDS011;15200;50.570;7.244;2023-03-01T10:31:55;13.88;;;10.23;;
27833;SDS011;15200;50.570;7.244;2023-03-01T10:34:33;18.05;;;10.18;;
27833;SDS011;15200;50.570;7.244;2023-03-01T10:37:04;15.10;;;10.27;;
27833;SDS011;15200;50.570;7.244;2023-03-01T10:39:29;13.53;;;9.50;;
27833;SDS011;15200;50.570;7.244;2023-03-01T10:42:03;15.98;;;10.28;;
27833;SDS011;15200;50.570;7.244;2023-03-01T10:44:35;18.60;;;10.23;;
27833;SDS011;15200;50.570;7.244;2023-03-01T10:47:03;15.48;;;10.50;;
27833;SDS011;15200;50.570;7.244;2023-03-01T10:49:30;16.25;;;9.68;;
27833;SDS011;15200;50.570;7.244;2023-03-01T10:51:58;17.57;;;9.65;;
27833;SDS011;15200;50.570;7.244;2023-03-01T10:54:28;17.12;;;10.05;;
27833;SDS011;15200;50.570;7.244;2023-03-01T10:56:57;15.00;;;10.00;;
27833;SDS011;15200;50.570;7.244;2023-03-01T10:59:30;14.87;;;9.63;;
27833;SDS011;15200;50.570;7.244;2023-03-01T11:02:09;14.85;;;9.30;;
27833;SDS011;15200;50.570;7.244;2023-03-01T11:04:28;13.03;;;8.35;;
27833;SDS011;15200;50.570;7.244;2023-03-01T11:06:59;15.70;;;9.08;;
27833;SDS011;15200;50.570;7.244;2023-03-01T11:09:29;12.98;;;8.85;;
27833;SDS011;15200;50.570;7.244;2023-03-01T11:11:57;14.18;;;8.70;;
27833;SDS011;15200;50.570;7.244;2023-03-01T11:14:38;15.43;;;9.10;;
27833;SDS011;15200;50.570;7.244;2023-03-01T11:17:14;13.50;;;8.93;;
27833;SDS011;15200;50.570;7.244;2023-03-01T11:19:41;12.13;;;9.00;;
27833;SDS011;15200;50.570;7.244;2023-03-01T11:22:12;16.23;;;9.43;;
27833;SDS011;15200;50.570;7.244;2023-03-01T11:27:17;13.13;;;8.35;;
27833;SDS011;15200;50.570;7.244;2023-03-01T11:29:45;12.03;;;8.73;;
27833;SDS011;15200;50.570;7.244;2023-03-01T11:32:13;11.97;;;8.90;;
27833;SDS011;15200;50.570;7.244;2023-03-01T11:34:52;10.68;;;8.35;;
27833;SDS011;15200;50.570;7.244;2023-03-01T11:37:21;14.10;;;9.43;;
27833;SDS011;15200;50.570;7.244;2023-03-01T11:39:52;13.28;;;8.38;;
27833;SDS011;15200;50.570;7.244;2023-03-01T11:42:20;10.28;;;7.45;;
27833;SDS011;15200;50.570;7.244;2023-03-01T11:44:48;10.18;;;7.35;;
27833;SDS011;15200;50.570;7.244;2023-03-01T11:47:20;8.65;;;7.05;;
27833;SDS011;15200;50.570;7.244;2023-03-01T11:52:33;12.80;;;7.58;;
27833;SDS011;15200;50.570;7.244;2023-03-01T12:00:07;9.58;;;7.10;;
27833;SDS011;15200;50.570;7.244;2023-03-01T12:10:17;9.45;;;6.90;;
27833;SDS011;15200;50.570;7.244;2023-03-01T12:12:55;9.20;;;7.08;;
27833;SDS011;15200;50.570;7.244;2023-03-01T12:26:00;8.43;;;6.60;;
27833;SDS011;15200;50.570;7.244;2023-03-01T12:28:32;7.70;;;6.75;;
27833;SDS011;15200;50.570;7.244;2023-03-01T12:31:02;8.40;;;6.10;;
27833;SDS011;15200;50.570;7.244;2023-03-01T12:33:34;8.55;;;6.42;;
27833;SDS011;15200;50.570;7.244;2023-03-01T12:36:11;8.38;;;6.08;;
27833;SDS011;15200;50.570;7.244;2023-03-01T12:49:11;8.75;;;6.30;;
27833;SDS011;15200;50.570;7.244;2023-03-01T12:51:38;8.50;;;5.72;;
27833;SDS011;15200;50.570;7.244;2023-03-01T12:54:11;7.25;;;5.78;;
27833;SDS011;15200;50.570;7.244;2023-03-01T12:56:35;8.33;;;6.15;;
27833;SDS011;15200;50.570;7.244;2023-03-01T13:01:51;7.65;;;5.90;;
27833;SDS011;15200;50.570;7.244;2023-03-01T13:07:13;10.38;;;6.83;;
27833;SDS011;15200;50.570;7.244;2023-03-01T13:20:21;8.25;;;5.75;;
27833;SDS011;15200;50.570;7.244;2023-03-01T13:23:00;7.90;;;5.60;;
27833;SDS011;15200;50.570;7.244;2023-03-01T13:25:19;9.48;;;6.05;;
27833;SDS011;15200;50.570;7.244;2023-03-01T13:27:46;6.12;;;5.20;;
27833;SDS011;15200;50.570;7.244;2023-03-01T13:35:44;8.20;;;5.80;;
27833;SDS011;15200;50.570;7.244;2023-03-01T13:40:57;6.08;;;4.62;;
27833;SDS011;15200;50.570;7.244;2023-03-01T13:43:36;7.58;;;4.53;;
27833;SDS011;15200;50.570;7.244;2023-03-01T13:46:00;9.65;;;6.17;;
27833;SDS011;15200;50.570;7.244;2023-03-01T13:48:29;9.90;;;5.55;;
27833;SDS011;15200;50.570;7.244;2023-03-01T13:50:58;6.70;;;4.55;;
27833;SDS011;15200;50.570;7.244;2023-03-01T13:53:28;9.78;;;4.55;;
27833;SDS011;15200;50.570;7.244;2023-03-01T13:55:57;6.35;;;4.58;;
27833;SDS011;15200;50.570;7.244;2023-03-01T13:58:26;6.50;;;4.33;;
27833;SDS011;15200;50.570;7.244;2023-03-01T14:03:25;9.08;;;5.00;;
27833;SDS011;15200;50.570;7.244;2023-03-01T14:06:03;8.53;;;4.58;;
27833;SDS011;15200;50.570;7.244;2023-03-01T14:08:35;7.08;;;4.55;;
27833;SDS011;15200;50.570;7.244;2023-03-01T14:16:27;7.75;;;4.90;;
27833;SDS011;15200;50.570;7.244;2023-03-01T14:18:55;7.58;;;4.85;;
27833;SDS011;15200;50.570;7.244;2023-03-01T14:21:21;8.33;;;4.78;;
27833;SDS011;15200;50.570;7.244;2023-03-01T14:23:49;6.15;;;4.47;;
27833;SDS011;15200;50.570;7.244;2023-03-01T14:26:19;10.68;;;4.75;;
27833;SDS011;15200;50.570;7.244;2023-03-01T14:28:45;8.03;;;4.50;;
27833;SDS011;15200;50.570;7.244;2023-03-01T14:31:29;6.28;;;4.55;;
27833;SDS011;15200;50.570;7.244;2023-03-01T14:33:54;6.10;;;3.98;;
27833;SDS011;15200;50.570;7.244;2023-03-01T14:36:26;4.60;;;3.45;;
27833;SDS011;15200;50.570;7.244;2023-03-01T14:38:54;7.95;;;4.60;;
27833;SDS011;15200;50.570;7.244;2023-03-01T14:41:22;6.92;;;4.37;;
27833;SDS011;15200;50.570;7.244;2023-03-01T14:44:00;7.08;;;4.42;;
27833;SDS011;15200;50.570;7.244;2023-03-01T14:46:32;5.37;;;3.80;;
27833;SDS011;15200;50.570;7.244;2023-03-01T14:49:03;5.53;;;4.00;;
27833;SDS011;15200;50.570;7.244;2023-03-01T14:51:35;8.68;;;4.90;;
27833;SDS011;15200;50.570;7.244;2023-03-01T14:54:00;5.83;;;4.12;;
27833;SDS011;15200;50.570;7.244;2023-03-01T14:56:27;7.08;;;3.90;;
27833;SDS011;15200;50.570;7.244;2023-03-01T14:58:57;5.60;;;3.20;;
27833;SDS011;15200;50.570;7.244;2023-03-01T15:01:25;5.72;;;3.65;;
27833;SDS011;15200;50.570;7.244;2023-03-01T15:03:53;8.60;;;4.15;;
27833;SDS011;15200;50.570;7.244;2023-03-01T15:06:21;5.12;;;3.75;;
27833;SDS011;15200;50.570;7.244;2023-03-01T15:08:53;10.55;;;4.62;;
27833;SDS011;15200;50.570;7.244;2023-03-01T15:11:28;6.83;;;3.50;;
27833;SDS011;15200;50.570;7.244;2023-03-01T15:13:52;5.95;;;3.62;;
27833;SDS011;15200;50.570;7.244;2023-03-01T15:16:24;6.10;;;3.55;;
27833;SDS011;15200;50.570;7.244;2023-03-01T15:18:56;8.45;;;3.20;;
27833;SDS011;15200;50.570;7.244;2023-03-01T15:21:25;5.62;;;3.37;;
27833;SDS011;15200;50.570;7.244;2023-03-01T15:23:55;7.28;;;3.17;;
27833;SDS011;15200;50.570;7.244;2023-03-01T15:26:25;6.12;;;3.62;;
27833;SDS011;15200;50.570;7.244;2023-03-01T15:28:53;5.10;;;3.42;;
27833;SDS011;15200;50.570;7.244;2023-03-01T15:31:37;6.30;;;3.50;;
27833;SDS011;15200;50.570;7.244;2023-03-01T15:34:08;5.17;;;3.25;;
27833;SDS011;15200;50.570;7.244;2023-03-01T15:36:40;6.42;;;3.58;;
27833;SDS011;15200;50.570;7.244;2023-03-01T15:41:53;5.95;;;3.50;;
27833;SDS011;15200;50.570;7.244;2023-03-01T15:44:29;6.00;;;3.70;;
27833;SDS011;15200;50.570;7.244;2023-03-01T15:46:56;5.30;;;3.30;;
27833;SDS011;15200;50.570;7.244;2023-03-01T15:49:35;6.10;;;3.20;;
27833;SDS011;15200;50.570;7.244;2023-03-01T15:52:02;4.95;;;3.58;;
27833;SDS011;15200;50.570;7.244;2023-03-01T15:54:30;5.55;;;3.25;;
27833;SDS011;15200;50.570;7.244;2023-03-01T15:56:57;4.65;;;3.08;;
27833;SDS011;15200;50.570;7.244;2023-03-01T15:59:24;4.85;;;3.15;;
27833;SDS011;15200;50.570;7.244;2023-03-01T16:01:52;5.03;;;2.75;;
27833;SDS011;15200;50.570;7.244;2023-03-01T16:04:19;5.92;;;2.87;;
27833;SDS011;15200;50.570;7.244;2023-03-01T16:06:50;4.42;;;3.20;;
27833;SDS011;15200;50.570;7.244;2023-03-01T16:09:25;4.05;;;2.83;;